Time;durP1;ratioP1;P1;durP2;ratioP2;P2;SDS_P1;SDS_P2;PMS_P1;PMS_P2;Temp;Humidity;BMP_temperature;BMP_pressure;BME280_temperature;BME280_humidity;BME280_pressure;Samples;Min_cycle;Max_cycle;Signal;HPM_P1;HPM_P2
2021/05/02 00:02:19;;;;;;;24.80;22.90;;;7.10;99.90;;;;;;5053237;28;20471;-65
2021/05/02 00:04:45;;;;;;;24.80;22.70;;;7.00;99.90;;;;;;5053128;28;20444;-66
2021/05/02 00:07:12;;;;;;;25.83;23.60;;;7.00;99.90;;;;;;5053104;28;20471;-65
2021/05/02 00:09:38;;;;;;;24.30;22.37;;;7.00;99.90;;;;;;5052731;28;20448;-66
2021/05/02 00:12:06;;;;;;;24.17;22.17;;;7.00;99.90;;;;;;5053008;28;20444;-64
2021/05/02 00:14:33;;;;;;;25.27;23.23;;;6.90;99.90;;;;;;5053070;28;20448;-65
2021/05/02 00:16:59;;;;;;;26.67;24.37;;;6.90;99.90;;;;;;5052869;28;20471;-65
2021/05/02 00:19:25;;;;;;;25.17;23.00;;;6.90;99.90;;;;;;5052690;28;20451;-65
2021/05/02 00:21:52;;;;;;;24.70;22.80;;;6.90;99.90;;;;;;5052899;28;20448;-64
2021/05/02 00:24:21;;;;;;;23.43;21.57;;;6.90;99.90;;;;;;5052790;28;20451;-64
2021/05/02 00:26:48;;;;;;;22.80;21.10;;;6.90;99.90;;;;;;5052601;28;20576;-64
2021/05/02 00:29:16;;;;;;;23.60;21.40;;;6.90;99.90;;;;;;5052506;28;20448;-64
2021/05/02 00:31:45;;;;;;;23.60;21.60;;;6.90;99.90;;;;;;5052694;28;20456;-65
2021/05/02 00:34:12;;;;;;;23.93;22.13;;;6.80;99.90;;;;;;5052428;28;20487;-65
2021/05/02 00:36:39;;;;;;;24.50;22.20;;;6.80;99.90;;;;;;5052474;28;20440;-65
2021/05/02 00:39:06;;;;;;;23.90;21.93;;;6.80;99.90;;;;;;5052408;28;20856;-65
2021/05/02 00:41:35;;;;;;;23.50;21.50;;;6.80;99.90;;;;;;5052518;28;20451;-65
2021/05/02 00:44:04;;;;;;;24.07;22.10;;;6.70;99.90;;;;;;5052446;28;20437;-65
2021/05/02 00:46:35;;;;;;;25.30;23.30;;;6.70;99.90;;;;;;5052366;28;20833;-65
2021/05/02 00:49:15;;;;;;;25.97;23.73;;;6.60;99.90;;;;;;5052194;28;20444;-66
2021/05/02 00:51:47;;;;;;;25.43;23.30;;;6.50;99.90;;;;;;5052311;28;20454;-65
2021/05/02 00:54:26;;;;;;;24.10;22.20;;;6.40;99.90;;;;;;5052231;28;20483;-65
2021/05/02 00:56:58;;;;;;;23.00;21.20;;;6.30;99.90;;;;;;5052242;28;20468;-65
2021/05/02 00:59:41;;;;;;;23.50;21.70;;;6.30;99.90;;;;;;5052156;28;20445;-64
2021/05/02 01:02:11;;;;;;;26.23;24.03;;;6.30;99.90;;;;;;5052096;28;20459;-65
2021/05/02 01:04:40;;;;;;;25.03;23.13;;;6.40;99.90;;;;;;5051953;28;20448;-65
2021/05/02 01:07:09;;;;;;;25.63;23.13;;;6.40;99.90;;;;;;5051896;28;20460;-64
2021/05/02 01:09:36;;;;;;;25.07;22.93;;;6.40;99.90;;;;;;5051682;28;20436;-65
2021/05/02 01:12:04;;;;;;;25.03;23.10;;;6.40;99.90;;;;;;5051845;28;20451;-65
2021/05/02 01:14:35;;;;;;;25.70;23.67;;;6.40;99.90;;;;;;5051959;28;20938;-65
2021/05/02 01:17:07;;;;;;;24.33;22.33;;;6.40;99.90;;;;;;5051773;28;20457;-65
2021/05/02 01:19:33;;;;;;;25.50;23.30;;;6.30;99.90;;;;;;5051630;28;20448;-65
2021/05/02 01:22:04;;;;;;;26.17;23.90;;;6.20;99.90;;;;;;5051627;28;20439;-65
2021/05/02 01:24:31;;;;;;;25.27;23.07;;;6.20;99.90;;;;;;5051768;28;20450;-66
2021/05/02 01:26:58;;;;;;;27.60;24.93;;;6.10;99.90;;;;;;5051389;28;20476;-65
2021/05/02 01:29:24;;;;;;;25.90;23.50;;;6.10;99.90;;;;;;5051419;28;20459;-65
2021/05/02 01:31:50;;;;;;;27.03;24.77;;;6.00;99.90;;;;;;5051676;28;20451;-66
2021/05/02 01:34:17;;;;;;;27.97;25.47;;;6.00;99.90;;;;;;5051430;28;20487;-66
2021/05/02 01:36:44;;;;;;;25.73;23.60;;;6.00;99.90;;;;;;5051501;28;20930;-66
2021/05/02 01:39:11;;;;;;;28.40;25.87;;;5.90;99.90;;;;;;5051275;28;20444;-65
2021/05/02 01:41:38;;;;;;;26.93;24.67;;;5.90;99.90;;;;;;5051370;28;20452;-66
2021/05/02 01:44:05;;;;;;;26.77;24.37;;;5.80;99.90;;;;;;5051303;28;20809;-65
2021/05/02 01:46:33;;;;;;;27.93;25.60;;;5.80;99.90;;;;;;5051278;28;20954;-65
2021/05/02 01:49:00;;;;;;;28.03;25.60;;;5.70;99.90;;;;;;5051157;28;21015;-66
2021/05/02 01:51:27;;;;;;;28.63;25.67;;;5.70;99.90;;;;;;5051257;28;20451;-65
2021/05/02 01:53:54;;;;;;;27.70;24.90;;;5.70;99.90;;;;;;5051171;28;20483;-66
2021/05/02 01:56:21;;;;;;;28.13;25.60;;;5.70;99.90;;;;;;5051326;28;20837;-65
2021/05/02 01:58:48;;;;;;;28.30;25.50;;;5.70;99.90;;;;;;5050986;28;21063;-66
2021/05/02 02:01:17;;;;;;;28.87;26.10;;;5.80;99.90;;;;;;5051154;28;20422;-65
2021/05/02 02:03:44;;;;;;;27.03;24.47;;;5.80;99.90;;;;;;5051278;28;20446;-66
2021/05/02 02:06:13;;;;;;;28.37;25.70;;;5.90;99.90;;;;;;5051248;28;20444;-65
2021/05/02 02:08:40;;;;;;;28.60;26.03;;;6.00;99.90;;;;;;5050852;28;20464;-66
2021/05/02 02:11:06;;;;;;;29.80;27.10;;;6.10;99.90;;;;;;5051311;28;20807;-65
2021/05/02 02:13:35;;;;;;;27.27;24.67;;;6.10;99.90;;;;;;5051025;28;20507;-65
2021/05/02 02:16:05;;;;;;;28.33;25.83;;;6.10;99.90;;;;;;5051141;28;20453;-65
2021/05/02 02:18:31;;;;;;;28.10;25.53;;;6.20;99.90;;;;;;5055075;28;20460;-66
2021/05/02 02:20:58;;;;;;;26.27;23.77;;;6.20;99.90;;;;;;5055055;28;20444;-65
2021/05/02 02:23:30;;;;;;;29.70;26.63;;;6.20;99.90;;;;;;5055152;28;20950;-66
2021/05/02 02:26:03;;;;;;;29.90;27.27;;;6.20;99.90;;;;;;5055191;28;20448;-65
2021/05/02 02:28:31;;;;;;;29.23;26.63;;;6.20;99.90;;;;;;5054767;28;20483;-65
2021/05/02 02:30:58;;;;;;;28.97;26.40;;;6.20;99.90;;;;;;5055094;28;20440;-66
2021/05/02 02:33:31;;;;;;;28.83;26.37;;;6.30;99.90;;;;;;5055056;28;20825;-66
2021/05/02 02:36:00;;;;;;;29.60;26.80;;;6.20;99.90;;;;;;5055072;28;20440;-65
2021/05/02 02:38:28;;;;;;;29.37;26.73;;;6.20;99.90;;;;;;5054583;28;20829;-65
2021/05/02 02:40:56;;;;;;;28.53;25.83;;;6.30;99.90;;;;;;5054882;28;20459;-65
2021/05/02 02:43:25;;;;;;;30.87;28.03;;;6.20;99.90;;;;;;5054730;28;20440;-64
2021/05/02 02:45:53;;;;;;;29.90;27.20;;;6.30;99.90;;;;;;5054691;28;20497;-65
2021/05/02 02:48:23;;;;;;;29.27;26.77;;;6.30;99.90;;;;;;5054386;28;20758;-65
2021/05/02 02:50:52;;;;;;;30.63;27.70;;;6.30;99.90;;;;;;5054558;28;20447;-65
2021/05/02 02:53:20;;;;;;;31.40;28.47;;;6.30;99.90;;;;;;5054348;28;21013;-65
2021/05/02 02:55:56;;;;;;;29.70;27.00;;;6.40;99.90;;;;;;5054475;28;20444;-65
2021/05/02 02:58:26;;;;;;;30.43;27.80;;;6.40;99.90;;;;;;5054157;28;20799;-66
2021/05/02 03:00:53;;;;;;;29.47;26.77;;;6.40;99.90;;;;;;5054412;28;20809;-66
2021/05/02 03:03:21;;;;;;;32.23;29.03;;;6.40;99.90;;;;;;5054216;28;20498;-66
2021/05/02 03:05:51;;;;;;;28.50;25.83;;;6.50;99.90;;;;;;5054292;28;20506;-65
2021/05/02 03:08:23;;;;;;;31.90;28.77;;;6.50;99.90;;;;;;5054240;28;20460;-66
2021/05/02 03:10:51;;;;;;;29.30;26.60;;;6.50;99.90;;;;;;5054209;28;20933;-65
2021/05/02 03:13:17;;;;;;;34.33;28.83;;;6.50;99.90;;;;;;5054055;28;20502;-65
2021/05/02 03:15:44;;;;;;;28.70;26.10;;;6.50;99.90;;;;;;5054054;28;20445;-65
2021/05/02 03:18:15;;;;;;;31.43;28.47;;;6.50;99.90;;;;;;5053832;28;20468;-65
2021/05/02 03:20:45;;;;;;;27.67;25.20;;;6.50;99.90;;;;;;5054019;28;20791;-64
2021/05/02 03:23:17;;;;;;;27.60;25.00;;;6.50;99.90;;;;;;5054054;28;20474;-64
2021/05/02 03:25:46;;;;;;;32.43;29.33;;;6.40;99.90;;;;;;5053853;28;20820;-65
2021/05/02 03:28:15;;;;;;;28.93;26.33;;;6.40;99.90;;;;;;5082934;22;20471;-63
2021/05/02 03:30:45;;;;;;;33.13;29.93;;;6.40;99.90;;;;;;5065725;28;20447;-62
2021/05/02 03:33:13;;;;;;;29.50;26.77;;;6.40;99.90;;;;;;5074160;28;20474;-63
2021/05/02 03:35:44;;;;;;;28.83;26.13;;;6.40;99.90;;;;;;5074067;28;20443;-62
2021/05/02 03:38:21;;;;;;;30.93;27.90;;;6.40;99.90;;;;;;5073833;28;20471;-64
2021/05/02 03:40:48;;;;;;;31.07;27.90;;;6.40;99.90;;;;;;5073843;28;20951;-62
2021/05/02 03:43:15;;;;;;;30.63;27.87;;;6.50;99.90;;;;;;5073989;28;20435;-64
2021/05/02 03:45:41;;;;;;;28.83;25.60;;;6.50;99.90;;;;;;5073943;28;20454;-65
2021/05/02 03:48:08;;;;;;;30.87;27.57;;;6.50;99.90;;;;;;5073542;28;20471;-61
2021/05/02 03:50:35;;;;;;;27.83;25.33;;;6.50;99.90;;;;;;5073674;28;20443;-63
2021/05/02 03:53:01;;;;;;;28.80;26.30;;;6.50;99.90;;;;;;5073579;28;20486;-64
2021/05/02 03:55:28;;;;;;;26.57;24.07;;;6.50;99.90;;;;;;5073629;28;20458;-64
2021/05/02 03:57:54;;;;;;;28.07;25.57;;;6.50;99.90;;;;;;5073541;28;20470;-64
2021/05/02 04:00:21;;;;;;;26.57;24.27;;;6.50;99.90;;;;;;5073604;28;20435;-61
2021/05/02 04:02:47;;;;;;;28.40;25.80;;;6.50;99.90;;;;;;5073584;28;20439;-64
2021/05/02 04:05:13;;;;;;;26.30;23.97;;;6.50;99.90;;;;;;5073620;28;20451;-64
2021/05/02 04:07:39;;;;;;;28.00;25.30;;;6.50;99.90;;;;;;5073361;28;20459;-62
2021/05/02 04:10:06;;;;;;;27.50;25.20;;;6.50;99.90;;;;;;5073243;28;20450;-64
2021/05/02 04:12:33;;;;;;;26.47;24.17;;;6.50;99.90;;;;;;5073640;28;20443;-61
2021/05/02 04:15:00;;;;;;;28.70;26.07;;;6.50;99.90;;;;;;5073627;28;20447;-64
2021/05/02 04:17:27;;;;;;;27.23;24.60;;;6.50;99.90;;;;;;5073511;28;20463;-61
2021/05/02 04:19:53;;;;;;;28.13;25.20;;;6.40;99.90;;;;;;5072974;28;20470;-65
2021/05/02 04:22:20;;;;;;;26.60;24.10;;;6.40;99.90;;;;;;5073094;28;20448;-64
2021/05/02 04:24:48;;;;;;;27.50;24.93;;;6.40;99.90;;;;;;5073050;28;20792;-64
2021/05/02 04:27:14;;;;;;;28.23;25.80;;;6.40;99.90;;;;;;5072930;28;20439;-65
2021/05/02 04:29:42;;;;;;;27.53;24.93;;;6.40;99.90;;;;;;5072975;28;20450;-65
2021/05/02 04:32:08;;;;;;;27.80;25.03;;;6.40;99.90;;;;;;5072949;28;20450;-65
2021/05/02 04:34:34;;;;;;;24.67;22.37;;;6.50;99.90;;;;;;5072849;28;20475;-65
2021/05/02 04:37:00;;;;;;;25.23;22.73;;;6.50;99.90;;;;;;5072847;28;20439;-63
2021/05/02 04:39:28;;;;;;;27.73;25.03;;;6.50;99.90;;;;;;5072163;28;20450;-64
2021/05/02 04:41:55;;;;;;;24.07;21.67;;;6.60;99.90;;;;;;5072827;28;20804;-64
2021/05/02 04:44:22;;;;;;;25.53;23.23;;;6.60;99.90;;;;;;5072634;28;20512;-63
2021/05/02 04:46:49;;;;;;;25.00;22.80;;;6.60;99.90;;;;;;5072701;28;20812;-63
2021/05/02 04:49:16;;;;;;;23.30;21.50;;;6.70;99.90;;;;;;5072255;28;20474;-63
2021/05/02 04:51:43;;;;;;;23.90;21.90;;;6.70;99.90;;;;;;5072547;28;20443;-64
2021/05/02 04:54:09;;;;;;;23.03;20.93;;;6.70;99.90;;;;;;5072365;28;20513;-62
2021/05/02 04:56:36;;;;;;;23.57;21.63;;;6.70;99.90;;;;;;5072438;28;20443;-63
2021/05/02 04:59:04;;;;;;;22.17;20.47;;;6.70;99.90;;;;;;5072179;28;20463;-63
2021/05/02 05:01:30;;;;;;;22.87;20.83;;;6.70;99.90;;;;;;5072368;28;20448;-62
2021/05/02 05:03:57;;;;;;;22.97;20.80;;;6.70;99.90;;;;;;5072379;28;20439;-63
2021/05/02 05:06:25;;;;;;;22.23;20.40;;;6.70;99.90;;;;;;5072346;28;20448;-63
2021/05/02 05:08:52;;;;;;;22.60;19.93;;;6.70;99.90;;;;;;5072031;28;21022;-61
2021/05/02 05:11:18;;;;;;;21.47;19.87;;;6.70;99.90;;;;;;5072131;28;20444;-61
2021/05/02 05:13:45;;;;;;;21.27;19.67;;;6.70;99.90;;;;;;5072141;28;20895;-62
2021/05/02 05:16:11;;;;;;;21.93;20.33;;;6.70;99.90;;;;;;5072198;28;20833;-61
2021/05/02 05:18:37;;;;;;;21.40;19.70;;;6.70;99.90;;;;;;5071780;28;20976;-62
2021/05/02 05:21:05;;;;;;;20.03;18.53;;;6.70;99.90;;;;;;5072139;28;20450;-60
2021/05/02 05:23:31;;;;;;;18.63;17.20;;;6.70;99.90;;;;;;5072000;28;20440;-62
2021/05/02 05:25:57;;;;;;;21.33;19.53;;;6.70;99.90;;;;;;5071944;28;20449;-64
2021/05/02 05:28:24;;;;;;;20.53;18.67;;;6.70;99.90;;;;;;5071638;28;20471;-63
2021/05/02 05:30:50;;;;;;;19.20;17.60;;;6.70;99.90;;;;;;5071813;28;20448;-64
2021/05/02 05:33:17;;;;;;;18.40;16.73;;;6.80;99.90;;;;;;5071763;28;20839;-62
2021/05/02 05:35:43;;;;;;;19.17;17.57;;;6.80;99.90;;;;;;5071730;28;20446;-63
2021/05/02 05:38:10;;;;;;;20.37;18.73;;;6.90;99.90;;;;;;5071572;28;20513;-60
2021/05/02 05:40:37;;;;;;;19.00;17.60;;;6.90;99.90;;;;;;5071577;28;20439;-64
2021/05/02 05:43:03;;;;;;;18.20;17.00;;;6.90;99.90;;;;;;5071856;28;20821;-62
2021/05/02 05:45:30;;;;;;;18.93;17.63;;;6.90;99.90;;;;;;5071733;28;20443;-65
2021/05/02 05:47:56;;;;;;;18.93;17.37;;;7.00;99.90;;;;;;5071499;28;20648;-65
2021/05/02 05:50:23;;;;;;;18.13;16.70;;;7.00;99.90;;;;;;5071447;28;20450;-62
2021/05/02 05:52:51;;;;;;;16.73;15.53;;;7.10;99.90;;;;;;5071037;28;20442;-64
2021/05/02 05:55:19;;;;;;;16.80;15.50;;;7.00;99.90;;;;;;5071530;28;20444;-61
2021/05/02 05:57:46;;;;;;;15.47;14.27;;;7.10;99.90;;;;;;5071368;28;20471;-62
2021/05/02 06:00:14;;;;;;;16.40;15.17;;;7.10;99.90;;;;;;5071601;28;20817;-63
2021/05/02 06:02:40;;;;;;;16.40;15.30;;;7.20;99.90;;;;;;5071356;28;20454;-62
2021/05/02 06:05:08;;;;;;;18.23;16.93;;;7.30;99.90;;;;;;5071560;28;20450;-63
2021/05/02 06:07:34;;;;;;;16.17;14.73;;;7.40;99.90;;;;;;5071398;28;20460;-64
2021/05/02 06:10:00;;;;;;;17.57;15.93;;;7.50;99.90;;;;;;5071225;28;20443;-60
2021/05/02 06:12:27;;;;;;;15.40;14.40;;;7.70;99.90;;;;;;5071433;28;20443;-62
2021/05/02 06:14:54;;;;;;;15.10;14.00;;;7.80;99.90;;;;;;5071299;28;20481;-61
2021/05/02 06:17:20;;;;;;;14.83;14.13;;;7.80;99.90;;;;;;5071231;28;20463;-63
2021/05/02 06:19:46;;;;;;;16.60;15.50;;;8.10;99.90;;;;;;5071059;28;20447;-62
2021/05/02 06:22:12;;;;;;;15.50;14.40;;;8.20;99.90;;;;;;5071280;28;20439;-62
2021/05/02 06:24:38;;;;;;;15.40;14.00;;;8.40;99.90;;;;;;5071131;28;20443;-61
2021/05/02 06:27:05;;;;;;;15.10;14.30;;;8.40;99.90;;;;;;5071187;28;20443;-65
2021/05/02 06:29:32;;;;;;;14.07;13.20;;;8.40;99.90;;;;;;5071063;28;20454;-63
2021/05/02 06:31:59;;;;;;;15.53;14.63;;;8.50;99.90;;;;;;5071136;28;20450;-64
2021/05/02 06:34:25;;;;;;;16.20;15.20;;;8.60;99.90;;;;;;5071151;28;20875;-62
2021/05/02 06:36:57;;;;;;;15.13;14.23;;;8.70;99.90;;;;;;5071141;28;20439;-64
2021/05/02 06:39:24;;;;;;;14.27;13.30;;;8.80;99.90;;;;;;5071082;28;20448;-63
2021/05/02 06:41:50;;;;;;;12.93;12.27;;;8.70;99.90;;;;;;5070966;28;20447;-64
2021/05/02 06:44:16;;;;;;;13.27;12.47;;;8.60;99.90;;;;;;5071059;28;20447;-63
2021/05/02 06:46:43;;;;;;;14.67;13.67;;;8.60;99.90;;;;;;5071023;28;20469;-62
2021/05/02 06:49:10;;;;;;;14.47;13.63;;;8.80;99.90;;;;;;5070826;28;20849;-62
2021/05/02 06:51:37;;;;;;;13.50;12.60;;;8.90;99.90;;;;;;5070786;28;20967;-60
2021/05/02 06:54:05;;;;;;;14.23;13.33;;;8.90;99.90;;;;;;5070837;28;20490;-64
2021/05/02 06:56:32;;;;;;;13.50;12.90;;;9.00;99.90;;;;;;5070904;28;20445;-64
2021/05/02 06:58:58;;;;;;;15.77;14.30;;;9.00;99.90;;;;;;5070748;28;20474;-64
2021/05/02 07:01:25;;;;;;;13.47;12.80;;;8.90;99.90;;;;;;5070861;28;20439;-59
2021/05/02 07:03:52;;;;;;;14.70;13.27;;;8.60;99.90;;;;;;5073898;28;20443;-63
2021/05/02 07:06:19;;;;;;;13.30;12.60;;;8.60;99.90;;;;;;5074465;28;20443;-62
2021/05/02 07:08:45;;;;;;;13.87;13.17;;;8.70;99.90;;;;;;5074363;28;20472;-64
2021/05/02 07:11:11;;;;;;;13.63;12.93;;;8.80;99.90;;;;;;5074555;28;20497;-63
2021/05/02 07:13:38;;;;;;;15.53;14.50;;;8.70;99.90;;;;;;5074572;28;20490;-64
2021/05/02 07:16:04;;;;;;;13.40;12.90;;;8.80;99.90;;;;;;5074517;28;20446;-63
2021/05/02 07:18:33;;;;;;;12.93;12.33;;;8.80;99.90;;;;;;5074249;28;20497;-61
2021/05/02 07:21:01;;;;;;;13.17;12.60;;;8.80;99.90;;;;;;5074239;28;20443;-61
2021/05/02 07:23:27;;;;;;;12.13;11.67;;;8.90;99.90;;;;;;5074286;28;20442;-65
2021/05/02 07:25:53;;;;;;;14.17;13.50;;;9.10;99.90;;;;;;5074200;28;20451;-65
2021/05/02 07:28:20;;;;;;;15.17;14.30;;;9.20;99.90;;;;;;5073788;28;20482;-65
2021/05/02 07:30:46;;;;;;;14.97;14.03;;;9.30;99.90;;;;;;5074046;28;20444;-65
2021/05/02 07:33:12;;;;;;;13.13;12.63;;;9.60;99.90;;;;;;5074087;28;20486;-65
2021/05/02 07:35:38;;;;;;;11.80;11.20;;;9.60;99.40;;;;;;5074046;28;20999;-61
2021/05/02 07:38:06;;;;;;;14.43;13.83;;;9.70;97.20;;;;;;5073775;28;21048;-63
2021/05/02 07:40:32;;;;;;;13.47;12.77;;;9.60;97.20;;;;;;5073904;28;20450;-63
2021/05/02 07:42:59;;;;;;;14.43;13.50;;;10.00;96.60;;;;;;5073750;28;20462;-61
2021/05/02 07:45:25;;;;;;;13.87;13.10;;;10.40;95.80;;;;;;5074072;28;20444;-64
2021/05/02 07:47:51;;;;;;;14.77;14.07;;;10.40;94.60;;;;;;5073534;28;20463;-64
2021/05/02 07:50:17;;;;;;;14.73;13.90;;;10.20;95.10;;;;;;5073586;28;20451;-62
2021/05/02 07:52:44;;;;;;;14.67;13.87;;;10.00;95.30;;;;;;5073666;28;21052;-60
2021/05/02 07:55:12;;;;;;;14.07;13.37;;;9.70;97.20;;;;;;5073791;28;20438;-61
2021/05/02 07:57:38;;;;;;;13.90;13.30;;;9.70;96.90;;;;;;5073554;28;20805;-62
2021/05/02 08:00:07;;;;;;;14.47;13.67;;;9.90;96.50;;;;;;5073462;28;20438;-63
2021/05/02 08:02:33;;;;;;;14.07;13.30;;;9.90;96.00;;;;;;5073668;28;20439;-62
2021/05/02 08:04:59;;;;;;;15.10;14.07;;;9.80;96.10;;;;;;5073143;28;20942;-62
2021/05/02 08:07:26;;;;;;;14.47;13.87;;;10.00;94.80;;;;;;5073353;28;20466;-63
2021/05/02 08:09:52;;;;;;;15.20;14.17;;;10.20;94.00;;;;;;5073382;28;20939;-62
2021/05/02 08:12:19;;;;;;;13.13;12.63;;;10.60;93.50;;;;;;5073618;28;20501;-64
2021/05/02 08:14:45;;;;;;;14.30;13.47;;;10.80;90.70;;;;;;5072527;28;20482;-63
2021/05/02 08:17:18;;;;;;;15.07;14.27;;;10.80;87.60;;;;;;5073579;28;20534;-62
2021/05/02 08:19:44;;;;;;;13.60;12.90;;;10.50;87.70;;;;;;5073077;28;20936;-64
2021/05/02 08:22:10;;;;;;;14.50;13.50;;;10.50;86.40;;;;;;5073576;28;21076;-61
2021/05/02 08:24:36;;;;;;;13.67;12.90;;;10.90;86.60;;;;;;5072872;28;20828;-64
2021/05/02 08:27:03;;;;;;;13.70;13.00;;;11.40;84.20;;;;;;5072450;28;20810;-64
2021/05/02 08:29:30;;;;;;;14.40;13.70;;;11.30;84.40;;;;;;5072957;28;20443;-67
2021/05/02 08:31:56;;;;;;;13.80;13.20;;;11.30;82.70;;;;;;5073098;28;20443;-67
2021/05/02 08:34:22;;;;;;;12.43;12.03;;;11.10;82.70;;;;;;5072972;28;20834;-66
2021/05/02 08:36:48;;;;;;;12.70;12.10;;;10.60;79.00;;;;;;5072999;28;20493;-66
2021/05/02 08:39:14;;;;;;;12.97;12.33;;;10.40;79.20;;;;;;5072762;28;20455;-66
2021/05/02 08:41:41;;;;;;;12.77;12.27;;;10.40;79.30;;;;;;5073002;28;20805;-64
2021/05/02 08:44:08;;;;;;;11.80;11.30;;;10.30;77.90;;;;;;5072665;28;20986;-66
2021/05/02 08:46:36;;;;;;;13.13;12.53;;;10.60;78.30;;;;;;5072497;28;20697;-67
2021/05/02 08:49:04;;;;;;;14.63;13.60;;;11.00;77.30;;;;;;5072508;28;20467;-67
2021/05/02 08:51:31;;;;;;;14.03;12.93;;;10.90;75.20;;;;;;5072806;28;20960;-65
2021/05/02 08:53:57;;;;;;;12.50;11.87;;;10.90;74.90;;;;;;5072814;28;20479;-66
2021/05/02 08:56:24;;;;;;;13.70;12.87;;;10.50;75.70;;;;;;5072635;28;20439;-67
2021/05/02 08:58:50;;;;;;;13.80;12.80;;;10.70;78.20;;;;;;5072396;28;20960;-67
2021/05/02 09:01:26;;;;;;;13.93;13.10;;;10.80;79.80;;;;;;5072587;28;20442;-67
2021/05/02 09:03:54;;;;;;;12.90;12.30;;;10.90;79.90;;;;;;5072500;28;20497;-67
2021/05/02 09:06:23;;;;;;;13.97;13.23;;;11.00;76.20;;;;;;5072526;28;20440;-68
2021/05/02 09:08:51;;;;;;;14.30;13.20;;;11.40;74.90;;;;;;5072401;28;20474;-66
2021/05/02 09:11:29;;;;;;;14.70;13.90;;;11.50;73.30;;;;;;5072244;28;20439;-66
2021/05/02 09:13:55;;;;;;;13.93;13.13;;;11.20;73.40;;;;;;5072386;28;20483;-66
2021/05/02 09:16:22;;;;;;;14.13;13.13;;;11.40;73.40;;;;;;5072295;28;20443;-65
2021/05/02 09:18:50;;;;;;;13.90;13.23;;;11.80;70.50;;;;;;5071955;28;20466;-67
2021/05/02 09:21:18;;;;;;;13.33;12.63;;;12.30;66.10;;;;;;5072072;28;20438;-66
2021/05/02 09:23:45;;;;;;;13.17;12.60;;;12.30;61.70;;;;;;5072158;28;20451;-66
2021/05/02 09:26:23;;;;;;;13.40;12.77;;;12.40;58.70;;;;;;5072055;28;20450;-65
2021/05/02 09:28:53;;;;;;;13.20;12.60;;;12.40;58.60;;;;;;5079792;22;20502;-65
2021/05/02 09:31:20;;;;;;;13.40;12.90;;;12.80;57.90;;;;;;5063156;28;20451;-65
2021/05/02 09:33:47;;;;;;;14.07;13.40;;;12.70;57.30;;;;;;5071421;28;21078;-64
2021/05/02 09:36:15;;;;;;;14.27;13.63;;;12.10;55.40;;;;;;5071485;28;20447;-65
2021/05/02 09:38:43;;;;;;;13.47;12.97;;;12.00;56.60;;;;;;5071335;28;20463;-65
2021/05/02 09:41:11;;;;;;;13.97;13.37;;;11.70;57.80;;;;;;5071403;28;20944;-65
2021/05/02 09:43:40;;;;;;;13.93;13.10;;;11.80;59.10;;;;;;5071220;28;20439;-67
2021/05/02 09:46:26;;;;;;;13.60;12.90;;;12.10;59.10;;;;;;5071614;28;20536;-68
2021/05/02 09:49:11;;;;;;;13.23;12.63;;;12.40;56.30;;;;;;5071421;28;20469;-66
2021/05/02 09:51:43;;;;;;;13.90;13.13;;;12.70;54.50;;;;;;5071421;28;20442;-67
2021/05/02 09:54:13;;;;;;;13.83;12.90;;;12.80;54.10;;;;;;5073706;28;20486;-68
2021/05/02 09:56:44;;;;;;;12.90;12.40;;;13.00;53.40;;;;;;5072327;28;20534;-68
2021/05/02 09:59:26;;;;;;;13.70;13.10;;;12.90;51.70;;;;;;5071306;28;20815;-66
2021/05/02 10:02:23;;;;;;;13.40;12.90;;;12.90;51.80;;;;;;5071506;28;20508;-67
2021/05/02 10:04:52;;;;;;;14.03;12.93;;;13.00;51.50;;;;;;5058402;28;20439;-66
2021/05/02 10:07:20;;;;;;;12.00;11.50;;;12.50;50.20;;;;;;5070953;28;20473;-64
2021/05/02 10:09:48;;;;;;;14.57;13.57;;;12.20;50.90;;;;;;5071140;28;20224;-66
2021/05/02 10:12:15;;;;;;;13.27;12.87;;;12.00;52.20;;;;;;5071080;28;20443;-66
2021/05/02 10:14:43;;;;;;;13.23;12.73;;;11.90;53.30;;;;;;5071290;28;20526;-66
2021/05/02 10:17:09;;;;;;;13.00;12.50;;;12.00;54.10;;;;;;5071202;28;20472;-66
2021/05/02 10:19:36;;;;;;;13.00;12.37;;;12.30;54.20;;;;;;5070967;28;20462;-68
2021/05/02 10:22:03;;;;;;;13.30;12.80;;;12.80;53.30;;;;;;5071113;28;20439;-67
2021/05/02 10:24:29;;;;;;;12.87;12.20;;;13.00;51.40;;;;;;5071060;28;20435;-67
2021/05/02 10:26:56;;;;;;;12.50;12.10;;;12.90;48.40;;;;;;5071075;28;20435;-66
2021/05/02 10:29:25;;;;;;;12.67;12.07;;;12.90;48.20;;;;;;5070707;28;20474;-67
2021/05/02 10:31:57;;;;;;;13.30;12.80;;;13.10;48.30;;;;;;5071188;28;20485;-67
2021/05/02 10:34:31;;;;;;;12.93;12.33;;;13.40;47.80;;;;;;5070955;28;21065;-67
2021/05/02 10:37:36;;;;;;;13.00;12.43;;;13.70;47.60;;;;;;5071169;28;20443;-67
2021/05/02 10:40:08;;;;;;;13.57;12.97;;;13.50;47.20;;;;;;5074645;28;20457;-67
2021/05/02 10:42:40;;;;;;;14.33;13.63;;;13.70;47.40;;;;;;5075175;28;20458;-68
2021/05/02 10:45:41;;;;;;;13.50;12.80;;;13.70;46.10;;;;;;5075214;28;20450;-66
2021/05/02 10:48:10;;;;;;;13.57;13.07;;;13.80;46.10;;;;;;5074572;28;20459;-65
2021/05/02 10:50:40;;;;;;;13.80;13.03;;;13.80;45.90;;;;;;5074512;28;20452;-67
2021/05/02 10:53:09;;;;;;;13.27;12.63;;;14.00;46.30;;;;;;5074622;28;20447;-65
2021/05/02 10:55:50;;;;;;;12.53;12.00;;;13.70;44.80;;;;;;5074512;28;20439;-65
2021/05/02 10:58:23;;;;;;;12.57;12.17;;;13.50;44.90;;;;;;5074147;28;20470;-67
2021/05/02 11:00:53;;;;;;;12.87;12.47;;;13.20;45.10;;;;;;5074210;28;20443;-67
2021/05/02 11:03:54;;;;;;;13.90;13.30;;;12.80;46.40;;;;;;5073879;28;20541;-66
2021/05/02 11:06:50;;;;;;;12.90;12.50;;;12.70;47.60;;;;;;5074285;28;20446;-67
2021/05/02 11:09:16;;;;;;;13.03;12.33;;;12.90;48.30;;;;;;5074321;28;20565;-68
2021/05/02 11:11:46;;;;;;;13.57;12.97;;;13.00;47.90;;;;;;5074207;28;20450;-66
2021/05/02 11:14:33;;;;;;;12.63;12.13;;;13.30;47.80;;;;;;5074203;28;21096;-64
2021/05/02 11:17:18;;;;;;;13.70;13.00;;;13.80;45.80;;;;;;5074157;28;20804;-65
2021/05/02 11:19:44;;;;;;;12.80;12.30;;;14.10;45.30;;;;;;5073861;28;20443;-65
2021/05/02 11:22:11;;;;;;;13.03;12.40;;;13.80;43.30;;;;;;5074005;28;20442;-68
2021/05/02 11:24:58;;;;;;;12.73;12.33;;;13.70;43.90;;;;;;5073870;28;20928;-64
2021/05/02 11:27:29;;;;;;;12.90;12.33;;;13.60;43.50;;;;;;5073846;28;20443;-64
2021/05/02 11:30:18;;;;;;;13.50;12.80;;;13.70;44.00;;;;;;5073682;28;20860;-63
2021/05/02 11:32:48;;;;;;;12.90;12.50;;;13.50;44.10;;;;;;5069558;28;20504;-64
2021/05/02 11:35:16;;;;;;;13.40;12.90;;;13.80;43.70;;;;;;5073826;28;20482;-65
2021/05/02 11:37:49;;;;;;;12.77;12.23;;;13.90;43.40;;;;;;5073392;28;20516;-64
2021/05/02 11:40:43;;;;;;;13.40;12.90;;;14.20;43.00;;;;;;5073534;28;20932;-66
2021/05/02 11:43:12;;;;;;;13.20;12.70;;;13.70;41.40;;;;;;5037634;28;20462;-65
2021/05/02 11:45:47;;;;;;;13.20;12.73;;;13.90;41.40;;;;;;5073526;28;20914;-65
2021/05/02 11:48:21;;;;;;;12.80;12.40;;;13.90;41.40;;;;;;5073143;28;20822;-67
2021/05/02 11:50:48;;;;;;;13.20;12.63;;;13.90;41.50;;;;;;5072783;28;20435;-64
2021/05/02 11:53:31;;;;;;;12.80;12.40;;;14.00;42.20;;;;;;5073276;28;20549;-67
2021/05/02 11:55:57;;;;;;;13.53;12.93;;;13.90;41.70;;;;;;5073292;28;20447;-64
2021/05/02 11:58:23;;;;;;;13.50;12.80;;;14.10;41.80;;;;;;5073033;28;20886;-65
2021/05/02 12:00:51;;;;;;;13.47;12.97;;;14.80;42.50;;;;;;5073191;28;20509;-67
2021/05/02 12:03:33;;;;;;;13.70;13.00;;;15.70;41.30;;;;;;5073248;28;20827;-67
2021/05/02 12:05:59;;;;;;;14.13;13.40;;;16.00;40.40;;;;;;5073215;28;20446;-67
2021/05/02 12:08:27;;;;;;;14.77;14.10;;;16.30;40.00;;;;;;5072972;28;20471;-65
2021/05/02 12:10:54;;;;;;;15.57;14.87;;;20.30;37.30;;;;;;5073070;28;20448;-66
2021/05/02 12:13:35;;;;;;;14.10;13.60;;;18.40;33.30;;;;;;5072903;28;20994;-67
2021/05/02 12:16:08;;;;;;;14.83;14.20;;;16.50;34.80;;;;;;5073080;28;20454;-65
2021/05/02 12:18:51;;;;;;;14.93;14.40;;;15.70;37.10;;;;;;5072981;28;20545;-65
2021/05/02 12:21:22;;;;;;;13.60;13.10;;;14.80;38.30;;;;;;5072930;28;20447;-65
2021/05/02 12:23:48;;;;;;;14.40;13.80;;;14.40;39.40;;;;;;5072864;28;20458;-66
2021/05/02 12:26:17;;;;;;;14.07;13.47;;;14.50;39.90;;;;;;5072769;28;20447;-67
2021/05/02 12:28:46;;;;;;;14.13;13.53;;;14.60;40.60;;;;;;5072511;28;21057;-66
2021/05/02 12:31:14;;;;;;;14.03;13.50;;;14.50;41.10;;;;;;5072697;28;20443;-65
2021/05/02 12:33:42;;;;;;;13.60;13.20;;;14.20;40.00;;;;;;5072359;28;20471;-65
2021/05/02 12:36:10;;;;;;;13.67;13.17;;;14.40;40.50;;;;;;5072567;28;20998;-65
2021/05/02 12:38:37;;;;;;;14.57;13.80;;;14.20;40.70;;;;;;5072300;28;20468;-66
2021/05/02 12:41:04;;;;;;;14.07;13.47;;;14.20;41.00;;;;;;5072384;28;20443;-66
2021/05/02 12:43:32;;;;;;;13.43;12.93;;;14.00;41.30;;;;;;5072458;28;20439;-67